FRU weather

Manas International Airport
Bishkek, Chuy Region, Kyrgyzstan

Public forecast

Using degrees Celsius for public forecast. Weather courtesy of forecast.io.

Current aviation weather report (METAR) for Manas International Airport

Retrieved 2019/10/20 20:30 UTC (0 seconds ago):

UCFM 202030Z 17002MPS 5000 BR FEW066CB 06/04 Q1019 R26/0///95 NOSIG

Closest aviation forecast (TAF) to Manas International Airport

Retrieved 2019/10/20 18:00 UTC (2 hours ago):

TAF UCFM 201650Z 2018/2118 32003G08MPS 3000 BR BKN030CB OVC100 TEMPO 2018/2024 28007G12MPS 1500 SHRA BR SCT005 BKN015CB TEMPO 2100/2106 27007G12MPS 1000 SHRA BR SCT005 BKN015CB